sensor_id;sensor_type;location;lat;lon;timestamp;pressure;altitude;pressure_sealevel;temperature;humidity
6413;BME280;3239;48.714;9.472;2023-04-02T00:07:52;97639.69;;;8.03;100.00
6413;BME280;3239;48.714;9.472;2023-04-02T00:10:45;97643.94;;;7.98;100.00
6413;BME280;3239;48.714;9.472;2023-04-02T00:15:41;97640.81;;;7.94;100.00
6413;BME280;3239;48.714;9.472;2023-04-02T00:18:18;97643.94;;;7.98;100.00
6413;BME280;3239;48.714;9.472;2023-04-02T00:21:25;97646.78;;;7.93;100.00
6413;BME280;3239;48.714;9.472;2023-04-02T00:23:54;97646.47;;;7.96;100.00
6413;BME280;3239;48.714;9.472;2023-04-02T00:26:23;97643.28;;;7.92;100.00
6413;BME280;3239;48.714;9.472;2023-04-02T00:28:51;97640.66;;;7.87;100.00
6413;BME280;3239;48.714;9.472;2023-04-02T00:31:19;97646.31;;;7.89;100.00
6413;BME280;3239;48.714;9.472;2023-04-02T00:33:45;97648.31;;;7.88;100.00
6413;BME280;3239;48.714;9.472;2023-04-02T00:36:11;97652.38;;;7.82;100.00
6413;BME280;3239;48.714;9.472;2023-04-02T00:38:37;97651.56;;;7.87;100.00
6413;BME280;3239;48.714;9.472;2023-04-02T00:41:13;97651.56;;;7.87;100.00
6413;BME280;3239;48.714;9.472;2023-04-02T00:43:43;97649.34;;;7.85;100.00
6413;BME280;3239;48.714;9.472;2023-04-02T00:46:14;97653.34;;;7.84;100.00
6413;BME280;3239;48.714;9.472;2023-04-02T00:49:03;97654.56;;;7.83;100.00
6413;BME280;3239;48.714;9.472;2023-04-02T00:51:47;97654.56;;;7.83;100.00
6413;BME280;3239;48.714;9.472;2023-04-02T00:54:18;97655.97;;;7.90;100.00
6413;BME280;3239;48.714;9.472;2023-04-02T00:56:49;97650.53;;;7.90;100.00
6413;BME280;3239;48.714;9.472;2023-04-02T00:59:35;97651.47;;;7.92;100.00
6413;BME280;3239;48.714;9.472;2023-04-02T01:04:57;97651.28;;;7.90;100.00
6413;BME280;3239;48.714;9.472;2023-04-02T01:13:32;97659.75;;;7.87;100.00
6413;BME280;3239;48.714;9.472;2023-04-02T01:24:17;97659.91;;;7.94;100.00
6413;BME280;3239;48.714;9.472;2023-04-02T01:27:01;97658.50;;;7.88;100.00
6413;BME280;3239;48.714;9.472;2023-04-02T01:29:37;97661.94;;;7.88;100.00
6413;BME280;3239;48.714;9.472;2023-04-02T01:32:08;97654.00;;;7.90;100.00
6413;BME280;3239;48.714;9.472;2023-04-02T01:34:35;97659.97;;;7.89;100.00
6413;BME280;3239;48.714;9.472;2023-04-02T01:37:34;97660.25;;;7.85;100.00
6413;BME280;3239;48.714;9.472;2023-04-02T01:43:25;97664.47;;;7.86;100.00
6413;BME280;3239;48.714;9.472;2023-04-02T01:45:55;97673.09;;;7.90;100.00
6413;BME280;3239;48.714;9.472;2023-04-02T01:48:24;97668.16;;;7.89;100.00
6413;BME280;3239;48.714;9.472;2023-04-02T01:50:56;97663.50;;;7.84;100.00
6413;BME280;3239;48.714;9.472;2023-04-02T01:53:27;97673.59;;;7.89;100.00
6413;BME280;3239;48.714;9.472;2023-04-02T01:55:58;97673.47;;;7.81;100.00
6413;BME280;3239;48.714;9.472;2023-04-02T01:58:28;97678.84;;;7.87;100.00
6413;BME280;3239;48.714;9.472;2023-04-02T02:01:15;97687.31;;;7.83;100.00
6413;BME280;3239;48.714;9.472;2023-04-02T02:03:42;97688.25;;;7.86;100.00
6413;BME280;3239;48.714;9.472;2023-04-02T02:06:14;97689.06;;;7.81;100.00
6413;BME280;3239;48.714;9.472;2023-04-02T02:09:03;97687.03;;;7.87;100.00
6413;BME280;3239;48.714;9.472;2023-04-02T02:11:31;97676.13;;;7.87;100.00
6413;BME280;3239;48.714;9.472;2023-04-02T02:14:22;97678.09;;;7.86;100.00
6413;BME280;3239;48.714;9.472;2023-04-02T02:16:50;97694.53;;;7.81;100.00
6413;BME280;3239;48.714;9.472;2023-04-02T02:19:37;97689.31;;;7.83;100.00
6413;BME280;3239;48.714;9.472;2023-04-02T02:22:32;97702.03;;;7.75;100.00
6413;BME280;3239;48.714;9.472;2023-04-02T02:25:05;97716.72;;;7.72;100.00
6413;BME280;3239;48.714;9.472;2023-04-02T02:28:14;97726.88;;;7.71;100.00
6413;BME280;3239;48.714;9.472;2023-04-02T02:31:04;97738.53;;;7.72;100.00
6413;BME280;3239;48.714;9.472;2023-04-02T02:33:45;97749.94;;;7.70;100.00
6413;BME280;3239;48.714;9.472;2023-04-02T02:39:10;97769.69;;;7.58;100.00
6413;BME280;3239;48.714;9.472;2023-04-02T02:41:44;97776.16;;;7.55;100.00
6413;BME280;3239;48.714;9.472;2023-04-02T02:44:34;97788.31;;;7.54;100.00
6413;BME280;3239;48.714;9.472;2023-04-02T02:47:17;97795.28;;;7.49;100.00
6413;BME280;3239;48.714;9.472;2023-04-02T02:49:47;97805.44;;;7.49;100.00
6413;BME280;3239;48.714;9.472;2023-04-02T02:52:20;97812.41;;;7.50;100.00
6413;BME280;3239;48.714;9.472;2023-04-02T02:54:58;97818.81;;;7.52;100.00
6413;BME280;3239;48.714;9.472;2023-04-02T02:57:36;97825.22;;;7.55;100.00
6413;BME280;3239;48.714;9.472;2023-04-02T03:00:05;97837.31;;;7.59;100.00
6413;BME280;3239;48.714;9.472;2023-04-02T03:02:36;97846.22;;;7.60;100.00
6413;BME280;3239;48.714;9.472;2023-04-02T03:05:03;97846.00;;;7.58;100.00
6413;BME280;3239;48.714;9.472;2023-04-02T03:07:30;97853.22;;;7.55;100.00
6413;BME280;3239;48.714;9.472;2023-04-02T03:10:16;97858.66;;;7.55;100.00
6413;BME280;3239;48.714;9.472;2023-04-02T03:12:58;97866.56;;;7.59;100.00
6413;BME280;3239;48.714;9.472;2023-04-02T03:22:22;97889.63;;;7.58;100.00
6413;BME280;3239;48.714;9.472;2023-04-02T03:24:40;97888.44;;;7.53;100.00
6413;BME280;3239;48.714;9.472;2023-04-02T03:27:19;97900.06;;;7.54;100.00
6413;BME280;3239;48.714;9.472;2023-04-02T03:32:50;97921.88;;;7.54;100.00
6413;BME280;3239;48.714;9.472;2023-04-02T03:35:39;97926.88;;;7.50;100.00
6413;BME280;3239;48.714;9.472;2023-04-02T03:38:29;97930.63;;;7.41;100.00
6413;BME280;3239;48.714;9.472;2023-04-02T03:41:39;97935.47;;;7.30;100.00
6413;BME280;3239;48.714;9.472;2023-04-02T03:44:27;97948.03;;;7.38;100.00
6413;BME280;3239;48.714;9.472;2023-04-02T03:47:15;97959.91;;;7.41;100.00
6413;BME280;3239;48.714;9.472;2023-04-02T03:49:47;97971.78;;;7.43;100.00
6413;BME280;3239;48.714;9.472;2023-04-02T03:52:24;97974.00;;;7.45;100.00
6413;BME280;3239;48.714;9.472;2023-04-02T03:54:53;97983.94;;;7.37;100.00
6413;BME280;3239;48.714;9.472;2023-04-02T03:57:38;97985.28;;;7.25;100.00
6413;BME280;3239;48.714;9.472;2023-04-02T04:00:37;97984.03;;;7.26;100.00
6413;BME280;3239;48.714;9.472;2023-04-02T04:03:15;97998.84;;;7.30;100.00
6413;BME280;3239;48.714;9.472;2023-04-02T04:06:23;98006.25;;;7.35;100.00
6413;BME280;3239;48.714;9.472;2023-04-02T04:11:31;98015.88;;;7.42;100.00
6413;BME280;3239;48.714;9.472;2023-04-02T04:14:14;98013.44;;;7.38;100.00
6413;BME280;3239;48.714;9.472;2023-04-02T04:19:54;98016.19;;;7.33;100.00
6413;BME280;3239;48.714;9.472;2023-04-02T04:22:26;98023.34;;;7.36;100.00
6413;BME280;3239;48.714;9.472;2023-04-02T04:25:03;98020.41;;;7.34;100.00
6413;BME280;3239;48.714;9.472;2023-04-02T04:27:49;98028.53;;;7.39;100.00
6413;BME280;3239;48.714;9.472;2023-04-02T04:30:49;98034.19;;;7.41;100.00
6413;BME280;3239;48.714;9.472;2023-04-02T04:33:25;98036.47;;;7.37;100.00
6413;BME280;3239;48.714;9.472;2023-04-02T04:36:01;98027.06;;;7.38;100.00
6413;BME280;3239;48.714;9.472;2023-04-02T04:38:32;98030.81;;;7.30;100.00
6413;BME280;3239;48.714;9.472;2023-04-02T04:41:17;98029.81;;;7.33;100.00
6413;BME280;3239;48.714;9.472;2023-04-02T04:44:03;98029.81;;;7.33;100.00
6413;BME280;3239;48.714;9.472;2023-04-02T04:46:39;98034.25;;;7.36;100.00
6413;BME280;3239;48.714;9.472;2023-04-02T04:49:21;98033.78;;;7.32;100.00
6413;BME280;3239;48.714;9.472;2023-04-02T04:52:05;98029.78;;;7.38;100.00
6413;BME280;3239;48.714;9.472;2023-04-02T04:54:37;98037.72;;;7.36;100.00
6413;BME280;3239;48.714;9.472;2023-04-02T04:57:05;98030.56;;;7.33;100.00
6413;BME280;3239;48.714;9.472;2023-04-02T04:59:48;98036.97;;;7.36;100.00
6413;BME280;3239;48.714;9.472;2023-04-02T05:02:31;98033.75;;;7.37;100.00
6413;BME280;3239;48.714;9.472;2023-04-02T05:05:01;98036.47;;;7.37;100.00
6413;BME280;3239;48.714;9.472;2023-04-02T05:07:31;98047.59;;;7.39;100.00
6413;BME280;3239;48.714;9.472;2023-04-02T05:11:05;98045.63;;;7.40;100.00
6413;BME280;3239;48.714;9.472;2023-04-02T05:13:55;98043.34;;;7.44;100.00
6413;BME280;3239;48.714;9.472;2023-04-02T05:16:38;98046.63;;;7.42;100.00
6413;BME280;3239;48.714;9.472;2023-04-02T05:19:23;98039.94;;;7.38;100.00
6413;BME280;3239;48.714;9.472;2023-04-02T05:22:31;98044.16;;;7.39;100.00
6413;BME280;3239;48.714;9.472;2023-04-02T05:25:22;98050.53;;;7.47;100.00
6413;BME280;3239;48.714;9.472;2023-04-02T05:28:04;98053.25;;;7.47;100.00
6413;BME280;3239;48.714;9.472;2023-04-02T05:31:11;98058.94;;;7.49;100.00
6413;BME280;3239;48.714;9.472;2023-04-02T05:33:39;98060.16;;;7.53;100.00
6413;BME280;3239;48.714;9.472;2023-04-02T05:36:17;98071.28;;;7.55;100.00
6413;BME280;3239;48.714;9.472;2023-04-02T05:38:45;98068.56;;;7.55;100.00
6413;BME280;3239;48.714;9.472;2023-04-02T05:41:42;98070.28;;;7.58;100.00
6413;BME280;3239;48.714;9.472;2023-04-02T05:44:20;98074.72;;;7.61;100.00
6413;BME280;3239;48.714;9.472;2023-04-02T05:46:57;98070.75;;;7.62;100.00
6413;BME280;3239;48.714;9.472;2023-04-02T05:49:49;98077.91;;;7.65;100.00
6413;BME280;3239;48.714;9.472;2023-04-02T05:52:29;98077.38;;;7.72;100.00
6413;BME280;3239;48.714;9.472;2023-04-02T05:55:25;98076.88;;;7.74;100.00
6413;BME280;3239;48.714;9.472;2023-04-02T05:57:57;98080.06;;;7.78;100.00
6413;BME280;3239;48.714;9.472;2023-04-02T06:00:46;98074.56;;;7.83;100.00
6413;BME280;3239;48.714;9.472;2023-04-02T06:03:37;98079.47;;;7.90;100.00
6413;BME280;3239;48.714;9.472;2023-04-02T06:06:26;98077.66;;;7.98;100.00
6413;BME280;3239;48.714;9.472;2023-04-02T06:09:02;98071.94;;;8.02;100.00
6413;BME280;3239;48.714;9.472;2023-04-02T06:11:40;98074.63;;;8.07;100.00
6413;BME280;3239;48.714;9.472;2023-04-02T06:14:12;98063.72;;;8.07;100.00
6413;BME280;3239;48.714;9.472;2023-04-02T06:16:39;98064.63;;;8.15;100.00
6413;BME280;3239;48.714;9.472;2023-04-02T06:19:32;98061.88;;;8.15;100.00
6413;BME280;3239;48.714;9.472;2023-04-02T06:22:37;98056.44;;;8.15;100.00
6413;BME280;3239;48.714;9.472;2023-04-02T06:25:17;98057.94;;;8.16;100.00
6413;BME280;3239;48.714;9.472;2023-04-02T06:27:45;98066.44;;;8.07;100.00
6413;BME280;3239;48.714;9.472;2023-04-02T06:30:19;98067.22;;;8.02;100.00
6413;BME280;3239;48.714;9.472;2023-04-02T06:32:47;98070.06;;;8.21;100.00
6413;BME280;3239;48.714;9.472;2023-04-02T06:35:13;98074.16;;;8.33;100.00
6413;BME280;3239;48.714;9.472;2023-04-02T06:37:47;98084.75;;;8.42;100.00
6413;BME280;3239;48.714;9.472;2023-04-02T06:40:40;98086.00;;;8.41;100.00
6413;BME280;3239;48.714;9.472;2023-04-02T06:43:27;98083.94;;;8.23;100.00
6413;BME280;3239;48.714;9.472;2023-04-02T06:46:00;98071.56;;;8.16;100.00
6413;BME280;3239;48.714;9.472;2023-04-02T06:48:29;98089.84;;;8.27;100.00
6413;BME280;3239;48.714;9.472;2023-04-02T06:51:04;98099.97;;;8.32;100.00
6413;BME280;3239;48.714;9.472;2023-04-02T06:53:44;98104.16;;;8.38;100.00
6413;BME280;3239;48.714;9.472;2023-04-02T06:58:43;98115.63;;;8.31;100.00
6413;BME280;3239;48.714;9.472;2023-04-02T07:01:16;98123.09;;;8.25;100.00
6413;BME280;3239;48.714;9.472;2023-04-02T07:03:44;98128.22;;;8.40;100.00
6413;BME280;3239;48.714;9.472;2023-04-02T07:06:19;98122.88;;;8.23;100.00
6413;BME280;3239;48.714;9.472;2023-04-02T07:08:46;98116.44;;;8.26;100.00
6413;BME280;3239;48.714;9.472;2023-04-02T07:11:19;98113.69;;;8.26;100.00
6413;BME280;3239;48.714;9.472;2023-04-02T07:13:46;98115.72;;;8.50;100.00
6413;BME280;3239;48.714;9.472;2023-04-02T07:16:22;98114.56;;;8.64;100.00
6413;BME280;3239;48.714;9.472;2023-04-02T07:18:50;98106.88;;;8.62;100.00
6413;BME280;3239;48.714;9.472;2023-04-02T07:21:15;98115.03;;;8.68;100.00
6413;BME280;3239;48.714;9.472;2023-04-02T07:23:41;98113.66;;;8.56;100.00
6413;BME280;3239;48.714;9.472;2023-04-02T07:26:11;98113.22;;;8.52;100.00
6413;BME280;3239;48.714;9.472;2023-04-02T07:28:37;98115.75;;;8.44;100.00
6413;BME280;3239;48.714;9.472;2023-04-02T07:31:03;98120.81;;;8.35;100.00
6413;BME280;3239;48.714;9.472;2023-04-02T07:33:34;98124.09;;;8.28;100.00
6413;BME280;3239;48.714;9.472;2023-04-02T07:36:00;98120.06;;;8.34;100.00
6413;BME280;3239;48.714;9.472;2023-04-02T07:38:25;98127.78;;;8.30;100.00
6413;BME280;3239;48.714;9.472;2023-04-02T07:40:51;98127.00;;;8.35;100.00
6413;BME280;3239;48.714;9.472;2023-04-02T07:43:17;98128.66;;;8.44;100.00
6413;BME280;3239;48.714;9.472;2023-04-02T07:45:43;98119.75;;;8.43;100.00
6413;BME280;3239;48.714;9.472;2023-04-02T07:48:12;98123.59;;;8.29;100.00
6413;BME280;3239;48.714;9.472;2023-04-02T07:50:38;98126.47;;;8.42;100.00
6413;BME280;3239;48.714;9.472;2023-04-02T07:53:04;98129.31;;;8.55;100.00
6413;BME280;3239;48.714;9.472;2023-04-02T07:55:29;98134.16;;;8.68;100.00
6413;BME280;3239;48.714;9.472;2023-04-02T07:57:57;98138.53;;;8.76;100.00
6413;BME280;3239;48.714;9.472;2023-04-02T08:00:25;98142.56;;;8.94;100.00
6413;BME280;3239;48.714;9.472;2023-04-02T08:02:52;98142.81;;;9.14;100.00
6413;BME280;3239;48.714;9.472;2023-04-02T08:05:18;98138.78;;;9.21;100.00
6413;BME280;3239;48.714;9.472;2023-04-02T08:07:52;98145.81;;;9.16;100.00
6413;BME280;3239;48.714;9.472;2023-04-02T08:10:18;98134.13;;;9.16;100.00
6413;BME280;3239;48.714;9.472;2023-04-02T08:12:45;98139.44;;;9.27;100.00
6413;BME280;3239;48.714;9.472;2023-04-02T08:15:14;98129.16;;;9.14;100.00
6413;BME280;3239;48.714;9.472;2023-04-02T08:17:41;98118.81;;;9.07;100.00
6413;BME280;3239;48.714;9.472;2023-04-02T08:20:17;98113.72;;;9.17;100.00
6413;BME280;3239;48.714;9.472;2023-04-02T08:22:45;98124.69;;;9.35;100.00
6413;BME280;3239;48.714;9.472;2023-04-02T08:25:12;98111.78;;;9.12;100.00
6413;BME280;3239;48.714;9.472;2023-04-02T08:27:38;98105.16;;;9.07;100.00
6413;BME280;3239;48.714;9.472;2023-04-02T08:30:05;98107.69;;;9.05;100.00
6413;BME280;3239;48.714;9.472;2023-04-02T08:32:32;98097.63;;;9.13;100.00
6413;BME280;3239;48.714;9.472;2023-04-02T08:34:58;98101.28;;;9.21;100.00
6413;BME280;3239;48.714;9.472;2023-04-02T08:37:23;98103.72;;;9.43;100.00
6413;BME280;3239;48.714;9.472;2023-04-02T08:39:50;98104.00;;;9.40;100.00
6413;BME280;3239;48.714;9.472;2023-04-02T08:43:04;98100.88;;;9.30;100.00
6413;BME280;3239;48.714;9.472;2023-04-02T08:46:03;98103.31;;;9.34;100.00
6413;BME280;3239;48.714;9.472;2023-04-02T08:48:32;98108.50;;;9.19;100.00
6413;BME280;3239;48.714;9.472;2023-04-02T08:50:59;98108.41;;;9.24;100.00
6413;BME280;3239;48.714;9.472;2023-04-02T08:53:34;98110.03;;;9.14;100.00
6413;BME280;3239;48.714;9.472;2023-04-02T08:56:17;98105.94;;;9.45;100.00
6413;BME280;3239;48.714;9.472;2023-04-02T08:58:50;98107.25;;;9.38;100.00
6413;BME280;3239;48.714;9.472;2023-04-02T09:02:01;98107.09;;;9.31;100.00
6413;BME280;3239;48.714;9.472;2023-04-02T09:04:30;98118.75;;;9.50;100.00
6413;BME280;3239;48.714;9.472;2023-04-02T09:06:58;98120.31;;;9.82;100.00
6413;BME280;3239;48.714;9.472;2023-04-02T09:09:25;98135.38;;;10.07;100.00
6413;BME280;3239;48.714;9.472;2023-04-02T09:11:59;98131.03;;;10.30;100.00
6413;BME280;3239;48.714;9.472;2023-04-02T09:14:45;98129.69;;;10.37;100.00
6413;BME280;3239;48.714;9.472;2023-04-02T09:17:23;98109.56;;;10.03;100.00
6413;BME280;3239;48.714;9.472;2023-04-02T09:20:17;98098.69;;;9.97;100.00
6413;BME280;3239;48.714;9.472;2023-04-02T09:22:49;98101.63;;;9.99;100.00
6413;BME280;3239;48.714;9.472;2023-04-02T09:25:29;98110.50;;;10.24;100.00
6413;BME280;3239;48.714;9.472;2023-04-02T09:28:02;98112.66;;;10.12;100.00
6413;BME280;3239;48.714;9.472;2023-04-02T09:32:59;98114.97;;;10.53;100.00
6413;BME280;3239;48.714;9.472;2023-04-02T09:35:56;98120.00;;;10.49;100.00
6413;BME280;3239;48.714;9.472;2023-04-02T09:38:27;98108.28;;;10.35;100.00
6413;BME280;3239;48.714;9.472;2023-04-02T09:41:16;98110.25;;;10.22;100.00
6413;BME280;3239;48.714;9.472;2023-04-02T09:43:43;98118.66;;;10.42;100.00
6413;BME280;3239;48.714;9.472;2023-04-02T09:48:43;98104.28;;;10.36;100.00
6413;BME280;3239;48.714;9.472;2023-04-02T09:51:17;98109.69;;;10.55;100.00
6413;BME280;3239;48.714;9.472;2023-04-02T09:53:51;98111.91;;;10.43;100.00
6413;BME280;3239;48.714;9.472;2023-04-02T09:56:38;98111.03;;;10.35;100.00
6413;BME280;3239;48.714;9.472;2023-04-02T10:02:21;98118.09;;;10.44;100.00
6413;BME280;3239;48.714;9.472;2023-04-02T10:04:46;98116.75;;;10.50;100.00
6413;BME280;3239;48.714;9.472;2023-04-02T10:07:42;98119.50;;;10.50;100.00
6413;BME280;3239;48.714;9.472;2023-04-02T10:10:29;98115.72;;;10.53;100.00
6413;BME280;3239;48.714;9.472;2023-04-02T10:13:21;98124.38;;;10.70;100.00
6413;BME280;3239;48.714;9.472;2023-04-02T10:16:16;98117.72;;;10.92;100.00
6413;BME280;3239;48.714;9.472;2023-04-02T10:18:49;98118.06;;;10.75;100.00
6413;BME280;3239;48.714;9.472;2023-04-02T10:21:25;98111.84;;;10.62;100.00
6413;BME280;3239;48.714;9.472;2023-04-02T10:23:53;98124.91;;;10.69;100.00
6413;BME280;3239;48.714;9.472;2023-04-02T10:26:52;98125.50;;;10.49;100.00
6413;BME280;3239;48.714;9.472;2023-04-02T10:29:51;98123.41;;;10.81;100.00
6413;BME280;3239;48.714;9.472;2023-04-02T10:32:29;98124.81;;;10.74;100.00
6413;BME280;3239;48.714;9.472;2023-04-02T10:40:18;98127.00;;;11.28;100.00
6413;BME280;3239;48.714;9.472;2023-04-02T10:46:11;98106.22;;;11.19;100.00
6413;BME280;3239;48.714;9.472;2023-04-02T10:55:24;98096.91;;;11.82;100.00
6413;BME280;3239;48.714;9.472;2023-04-02T11:05:20;98112.41;;;12.13;100.00
6413;BME280;3239;48.714;9.472;2023-04-02T11:08:38;98106.47;;;12.01;100.00
6413;BME280;3239;48.714;9.472;2023-04-02T11:10:49;98102.41;;;11.48;100.00
6413;BME280;3239;48.714;9.472;2023-04-02T11:13:30;98109.06;;;11.27;100.00
6413;BME280;3239;48.714;9.472;2023-04-02T11:15:57;98117.69;;;11.44;100.00
6413;BME280;3239;48.714;9.472;2023-04-02T11:18:29;98127.25;;;11.63;100.00
6413;BME280;3239;48.714;9.472;2023-04-02T11:23:58;98117.06;;;11.84;100.00
6413;BME280;3239;48.714;9.472;2023-04-02T11:26:42;98134.00;;;11.75;100.00
6413;BME280;3239;48.714;9.472;2023-04-02T11:29:27;98124.97;;;11.54;100.00
6413;BME280;3239;48.714;9.472;2023-04-02T11:37:40;98137.69;;;11.78;100.00
6413;BME280;3239;48.714;9.472;2023-04-02T11:42:37;98147.06;;;11.82;100.00
6413;BME280;3239;48.714;9.472;2023-04-02T11:50:39;98141.69;;;11.17;100.00
6413;BME280;3239;48.714;9.472;2023-04-02T11:59:06;98168.34;;;11.30;100.00
6413;BME280;3239;48.714;9.472;2023-04-02T12:05:13;98178.47;;;11.61;100.00
6413;BME280;3239;48.714;9.472;2023-04-02T12:16:15;98170.06;;;11.20;100.00
6413;BME280;3239;48.714;9.472;2023-04-02T12:18:47;98172.16;;;11.14;100.00
6413;BME280;3239;48.714;9.472;2023-04-02T12:21:22;98168.13;;;11.28;100.00
6413;BME280;3239;48.714;9.472;2023-04-02T12:23:52;98177.31;;;11.43;100.00
6413;BME280;3239;48.714;9.472;2023-04-02T12:26:31;98183.00;;;11.45;100.00
6413;BME280;3239;48.714;9.472;2023-04-02T12:29:34;98185.22;;;11.34;100.00
6413;BME280;3239;48.714;9.472;2023-04-02T12:32:01;98203.91;;;11.48;100.00
6413;BME280;3239;48.714;9.472;2023-04-02T12:34:29;98196.63;;;11.51;100.00
6413;BME280;3239;48.714;9.472;2023-04-02T12:37:03;98199.78;;;11.42;100.00
6413;BME280;3239;48.714;9.472;2023-04-02T12:39:31;98193.03;;;11.43;100.00
6413;BME280;3239;48.714;9.472;2023-04-02T12:41:57;98194.91;;;11.48;100.00
6413;BME280;3239;48.714;9.472;2023-04-02T12:44:29;98200.50;;;11.55;100.00
6413;BME280;3239;48.714;9.472;2023-04-02T12:46:56;98195.34;;;11.52;100.00
6413;BME280;3239;48.714;9.472;2023-04-02T12:49:42;98200.94;;;11.72;100.00
6413;BME280;3239;48.714;9.472;2023-04-02T12:52:14;98204.41;;;11.73;100.00
6413;BME280;3239;48.714;9.472;2023-04-02T12:55:02;98202.81;;;11.77;100.00
6413;BME280;3239;48.714;9.472;2023-04-02T13:00:00;98194.75;;;11.92;100.00
6413;BME280;3239;48.714;9.472;2023-04-02T13:02:42;98186.09;;;12.01;100.00
6413;BME280;3239;48.714;9.472;2023-04-02T13:05:09;98188.84;;;12.01;100.00
6413;BME280;3239;48.714;9.472;2023-04-02T13:07:36;98191.78;;;12.24;100.00
6413;BME280;3239;48.714;9.472;2023-04-02T13:10:24;98189.47;;;12.28;100.00
6413;BME280;3239;48.714;9.472;2023-04-02T13:12:59;98183.00;;;12.05;100.00
6413;BME280;3239;48.714;9.472;2023-04-02T13:15:31;98189.69;;;11.96;100.00
6413;BME280;3239;48.714;9.472;2023-04-02T13:18:18;98186.09;;;12.22;100.00
6413;BME280;3239;48.714;9.472;2023-04-02T13:20:59;98193.38;;;11.99;100.00
6413;BME280;3239;48.714;9.472;2023-04-02T13:26:04;98195.28;;;12.24;100.00
6413;BME280;3239;48.714;9.472;2023-04-02T13:28:35;98194.97;;;12.28;100.00
6413;BME280;3239;48.714;9.472;2023-04-02T13:31:00;98194.09;;;12.33;100.00
6413;BME280;3239;48.714;9.472;2023-04-02T13:33:26;98198.59;;;12.43;100.00
6413;BME280;3239;48.714;9.472;2023-04-02T13:35:52;98200.88;;;12.52;100.00
6413;BME280;3239;48.714;9.472;2023-04-02T13:38:18;98203.75;;;12.67;100.00
6413;BME280;3239;48.714;9.472;2023-04-02T13:40:44;98192.88;;;12.82;100.00
6413;BME280;3239;48.714;9.472;2023-04-02T13:43:18;98198.00;;;12.58;100.00
6413;BME280;3239;48.714;9.472;2023-04-02T13:45:49;98198.78;;;12.45;100.00
6413;BME280;3239;48.714;9.472;2023-04-02T13:48:16;98208.66;;;12.41;100.00
6413;BME280;3239;48.714;9.472;2023-04-02T13:50:43;98217.94;;;12.38;100.00
6413;BME280;3239;48.714;9.472;2023-04-02T13:53:21;98220.25;;;12.47;100.00
6413;BME280;3239;48.714;9.472;2023-04-02T13:55:49;98220.00;;;12.24;100.00
6413;BME280;3239;48.714;9.472;2023-04-02T13:58:16;98232.16;;;11.82;100.00
6413;BME280;3239;48.714;9.472;2023-04-02T14:00:43;98248.25;;;11.65;100.00
6413;BME280;3239;48.714;9.472;2023-04-02T14:03:18;98262.38;;;11.69;100.00
6413;BME280;3239;48.714;9.472;2023-04-02T14:25:01;98363.72;;;10.73;100.00
6413;BME280;3239;48.714;9.472;2023-04-02T14:31:40;98371.94;;;10.73;100.00
6413;BME280;3239;48.714;9.472;2023-04-02T14:34:20;98377.34;;;10.60;100.00
6413;BME280;3239;48.714;9.472;2023-04-02T14:49:08;98396.66;;;10.67;100.00
6413;BME280;3239;48.714;9.472;2023-04-02T14:51:44;98400.97;;;10.63;100.00
6413;BME280;3239;48.714;9.472;2023-04-02T14:54:40;98412.00;;;10.57;100.00
6413;BME280;3239;48.714;9.472;2023-04-02T14:57:16;98404.22;;;10.61;100.00
6413;BME280;3239;48.714;9.472;2023-04-02T15:03:14;98410.63;;;10.27;100.00
6413;BME280;3239;48.714;9.472;2023-04-02T15:06:05;98417.44;;;10.20;100.00
6413;BME280;3239;48.714;9.472;2023-04-02T15:09:05;98423.94;;;10.17;100.00
6413;BME280;3239;48.714;9.472;2023-04-02T15:11:44;98422.25;;;10.33;100.00
6413;BME280;3239;48.714;9.472;2023-04-02T15:14:25;98418.34;;;10.28;100.00
6413;BME280;3239;48.714;9.472;2023-04-02T15:16:52;98423.31;;;10.30;100.00
6413;BME280;3239;48.714;9.472;2023-04-02T15:19:19;98431.53;;;10.30;100.00
6413;BME280;3239;48.714;9.472;2023-04-02T15:30:25;98430.53;;;10.03;100.00
6413;BME280;3239;48.714;9.472;2023-04-02T15:32:54;98435.69;;;10.12;100.00
6413;BME280;3239;48.714;9.472;2023-04-02T15:35:34;98445.25;;;10.00;100.00
6413;BME280;3239;48.714;9.472;2023-04-02T15:41:24;98449.34;;;9.88;100.00
6413;BME280;3239;48.714;9.472;2023-04-02T15:46:37;98471.31;;;9.83;100.00
6413;BME280;3239;48.714;9.472;2023-04-02T15:49:38;98469.84;;;9.76;100.00
6413;BME280;3239;48.714;9.472;2023-04-02T16:01:10;98510.28;;;9.24;100.00
6413;BME280;3239;48.714;9.472;2023-04-02T16:06:34;98526.72;;;9.19;100.00
6413;BME280;3239;48.714;9.472;2023-04-02T16:09:21;98524.63;;;9.36;100.00
6413;BME280;3239;48.714;9.472;2023-04-02T16:12:01;98524.44;;;9.23;100.00
6413;BME280;3239;48.714;9.472;2023-04-02T16:14:36;98523.84;;;9.00;100.00
6413;BME280;3239;48.714;9.472;2023-04-02T16:17:09;98534.47;;;9.09;100.00
6413;BME280;3239;48.714;9.472;2023-04-02T16:19:46;98543.44;;;9.04;100.00
6413;BME280;3239;48.714;9.472;2023-04-02T16:22:32;98532.75;;;9.01;100.00
6413;BME280;3239;48.714;9.472;2023-04-02T16:30:49;98539.81;;;8.85;100.00
6413;BME280;3239;48.714;9.472;2023-04-02T16:33:53;98547.28;;;8.79;100.00
6413;BME280;3239;48.714;9.472;2023-04-02T16:42:33;98555.72;;;8.76;100.00
6413;BME280;3239;48.714;9.472;2023-04-02T16:50:29;98566.44;;;8.68;100.00
6413;BME280;3239;48.714;9.472;2023-04-02T17:01:52;98577.41;;;8.35;100.00
6413;BME280;3239;48.714;9.472;2023-04-02T17:05:10;98566.75;;;8.48;100.00
6413;BME280;3239;48.714;9.472;2023-04-02T17:11:13;98575.94;;;8.40;100.00
6413;BME280;3239;48.714;9.472;2023-04-02T17:13:43;98574.44;;;8.39;100.00
6413;BME280;3239;48.714;9.472;2023-04-02T17:16:16;98583.38;;;8.39;100.00
6413;BME280;3239;48.714;9.472;2023-04-02T17:18:53;98587.88;;;8.26;100.00
6413;BME280;3239;48.714;9.472;2023-04-02T17:21:25;98589.59;;;8.34;100.00
6413;BME280;3239;48.714;9.472;2023-04-02T17:24:03;98596.78;;;8.32;100.00
6413;BME280;3239;48.714;9.472;2023-04-02T17:26:33;98592.34;;;8.23;100.00
6413;BME280;3239;48.714;9.472;2023-04-02T17:29:07;98599.00;;;8.17;100.00
6413;BME280;3239;48.714;9.472;2023-04-02T17:31:34;98602.75;;;8.03;100.00
6413;BME280;3239;48.714;9.472;2023-04-02T17:34:14;98608.44;;;8.05;100.00
6413;BME280;3239;48.714;9.472;2023-04-02T17:39:34;98627.03;;;7.90;100.00
6413;BME280;3239;48.714;9.472;2023-04-02T17:42:09;98633.69;;;7.83;100.00
6413;BME280;3239;48.714;9.472;2023-04-02T17:50:52;98656.78;;;7.77;100.00
6413;BME280;3239;48.714;9.472;2023-04-02T18:05:35;98685.41;;;7.39;100.00